Shirley P. Settoon — WDF9252 — position and weather

sailwx.info

Track history (hours):
 
Tides and Currents Weather Stations Pressure Air Temp Water Temp Dewpoint Dewpoint Depression Visibility Wind Speed Wind Dir Waves Ship Positions

Shirley P. Settoon

Owner: Settoon Towing, LLC, Houma, LA. More information available from US FCC via Universal Licensing System and Coast Guard Vessel Documentation Center.

Last reported at 2016-Jun-23 20:08 UTC. Time now 2016-Jun-30 17:51 UTC.
Position N 29°56' W 090°12'.

Length 32 m.

Type: Towing. MMSI: 367503240.

Date/timePositionNaut miles runAvg speedWind from/ knotsBaromVisibWave heightAir tempDewpointWater temp
2016-Jun-23 20:08N 29°56' W 090°12'3 5.4
2016-Jun-23 19:33N 29°56' W 090°08'11 5.7
2016-Jun-23 17:33N 29°55' W 089°55'4 4.2
2016-Jun-23 16:33N 29°52' W 089°59'0 0.5
2016-Jun-23 15:33N 29°51' W 089°59'0 0.0
2016-Jun-23 14:32N 29°51' W 089°59'8 0.2
2016-Jun-22 06:34N 29°44' W 090°00'8 7.6
2016-Jun-22 05:33N 29°52' W 089°59'4 4.3
2016-Jun-22 04:33N 29°55' W 089°56'6 6.5
2016-Jun-22 03:33N 29°56' W 090°03'  
2016-Jun-16 04:24N 29°59' W 090°24'  
Track history (hours):
 
Tides and Currents Weather Stations Pressure Air Temp Water Temp Dewpoint Dewpoint Depression Visibility Wind Speed Wind Dir Waves Ship Positions

Shirley P. Settoon

Owner: Settoon Towing, LLC, Houma, LA. More information available from US FCC via Universal Licensing System and Coast Guard Vessel Documentation Center.

Last reported at 2016-Jun-23 20:08 UTC. Time now 2016-Jun-30 17:51 UTC.
Position N 29°56' W 090°12'.

Length 32 m.

Type: Towing. MMSI: 367503240.

Date/timePositionNaut miles runAvg speedWind from/ knotsBaromVisibWave heightAir tempDewpointWater temp
2016-Jun-23 20:08N 29°56' W 090°12'3 5.4
2016-Jun-23 19:33N 29°56' W 090°08'11 5.7
2016-Jun-23 17:33N 29°55' W 089°55'4 4.2
2016-Jun-23 16:33N 29°52' W 089°59'0 0.5
2016-Jun-23 15:33N 29°51' W 089°59'0 0.0
2016-Jun-23 14:32N 29°51' W 089°59'8 0.2
2016-Jun-22 06:34N 29°44' W 090°00'8 7.6
2016-Jun-22 05:33N 29°52' W 089°59'4 4.3
2016-Jun-22 04:33N 29°55' W 089°56'6 6.5
2016-Jun-22 03:33N 29°56' W 090°03'  
2016-Jun-16 04:24N 29°59' W 090°24'  

Dump ship's entire track history